sensor_id;sensor_type;location;lat;lon;timestamp;pressure;altitude;pressure_sealevel;temperature;humidity
57990;BME280;58373;51.824;5.564;2023-04-05T00:02:12;102426.56;;;3.68;68.05
57990;BME280;58373;51.824;5.564;2023-04-05T00:04:38;102431.78;;;3.65;68.76
57990;BME280;58373;51.824;5.564;2023-04-05T00:07:16;102428.41;;;3.63;68.54
57990;BME280;58373;51.824;5.564;2023-04-05T00:09:41;102425.94;;;3.60;68.21
57990;BME280;58373;51.824;5.564;2023-04-05T00:12:07;102431.19;;;3.56;68.48
57990;BME280;58373;51.824;5.564;2023-04-05T00:14:32;102427.06;;;3.50;68.11
57990;BME280;58373;51.824;5.564;2023-04-05T00:16:57;102422.00;;;3.47;68.39
57990;BME280;58373;51.824;5.564;2023-04-05T00:19:23;102418.72;;;3.42;68.54
57990;BME280;58373;51.824;5.564;2023-04-05T00:21:49;102425.63;;;3.40;68.74
57990;BME280;58373;51.824;5.564;2023-04-05T00:24:14;102422.25;;;3.38;68.47
57990;BME280;58373;51.824;5.564;2023-04-05T00:26:40;102424.06;;;3.34;68.49
57990;BME280;58373;51.824;5.564;2023-04-05T00:29:06;102422.41;;;3.32;68.72
57990;BME280;58373;51.824;5.564;2023-04-05T00:31:31;102413.91;;;3.30;69.29
57990;BME280;58373;51.824;5.564;2023-04-05T00:33:57;102417.38;;;3.29;68.80
57990;BME280;58373;51.824;5.564;2023-04-05T00:36:22;102417.38;;;3.29;68.82
57990;BME280;58373;51.824;5.564;2023-04-05T00:38:47;102408.84;;;3.27;68.90
57990;BME280;58373;51.824;5.564;2023-04-05T00:41:13;102410.63;;;3.25;68.76
57990;BME280;58373;51.824;5.564;2023-04-05T00:43:39;102409.84;;;3.23;69.28
57990;BME280;58373;51.824;5.564;2023-04-05T00:46:04;102415.84;;;3.22;69.24
57990;BME280;58373;51.824;5.564;2023-04-05T00:48:30;102412.47;;;3.19;68.64
57990;BME280;58373;51.824;5.564;2023-04-05T00:50:56;102410.00;;;3.15;69.15
57990;BME280;58373;51.824;5.564;2023-04-05T00:53:21;102412.63;;;3.13;69.10
57990;BME280;58373;51.824;5.564;2023-04-05T00:55:47;102403.28;;;3.11;68.58
57990;BME280;58373;51.824;5.564;2023-04-05T00:58:13;102402.50;;;3.07;68.77
57990;BME280;58373;51.824;5.564;2023-04-05T01:00:38;102400.03;;;3.04;69.06
57990;BME280;58373;51.824;5.564;2023-04-05T01:03:05;102395.78;;;3.03;68.74
57990;BME280;58373;51.824;5.564;2023-04-05T01:08:11;102395.94;;;2.97;69.14
57990;BME280;58373;51.824;5.564;2023-04-05T01:10:41;102387.44;;;2.95;68.41
57990;BME280;58373;51.824;5.564;2023-04-05T01:13:08;102390.06;;;2.93;68.71
57990;BME280;58373;51.824;5.564;2023-04-05T01:15:33;102394.41;;;2.90;69.16
57990;BME280;58373;51.824;5.564;2023-04-05T01:17:58;102382.53;;;2.86;68.95
57990;BME280;58373;51.824;5.564;2023-04-05T01:20:26;102385.97;;;2.85;68.79
57990;BME280;58373;51.824;5.564;2023-04-05T01:23:15;102389.50;;;2.81;69.02
57990;BME280;58373;51.824;5.564;2023-04-05T01:28:34;102376.88;;;2.73;69.09
57990;BME280;58373;51.824;5.564;2023-04-05T01:31:06;102388.03;;;2.71;69.25
57990;BME280;58373;51.824;5.564;2023-04-05T01:36:23;102374.50;;;2.65;69.27
57990;BME280;58373;51.824;5.564;2023-04-05T01:38:51;102367.75;;;2.61;68.48
57990;BME280;58373;51.824;5.564;2023-04-05T01:41:18;102360.16;;;2.58;68.88
57990;BME280;58373;51.824;5.564;2023-04-05T01:43:43;102369.59;;;2.56;68.98
57990;BME280;58373;51.824;5.564;2023-04-05T01:46:08;102370.53;;;2.52;68.76
57990;BME280;58373;51.824;5.564;2023-04-05T01:48:33;102375.69;;;2.51;68.83
57990;BME280;58373;51.824;5.564;2023-04-05T01:50:58;102370.66;;;2.48;69.38
57990;BME280;58373;51.824;5.564;2023-04-05T01:53:24;102366.44;;;2.45;68.85
57990;BME280;58373;51.824;5.564;2023-04-05T01:55:49;102371.63;;;2.42;69.04
57990;BME280;58373;51.824;5.564;2023-04-05T01:58:15;102371.69;;;2.39;69.17
57990;BME280;58373;51.824;5.564;2023-04-05T02:00:40;102372.63;;;2.36;68.82
57990;BME280;58373;51.824;5.564;2023-04-05T02:03:05;102366.66;;;2.36;69.14
57990;BME280;58373;51.824;5.564;2023-04-05T02:05:30;102360.72;;;2.34;68.66
57990;BME280;58373;51.824;5.564;2023-04-05T02:07:55;102365.03;;;2.32;69.62
57990;BME280;58373;51.824;5.564;2023-04-05T02:10:21;102359.97;;;2.29;69.30
57990;BME280;58373;51.824;5.564;2023-04-05T02:12:46;102359.16;;;2.27;69.23
57990;BME280;58373;51.824;5.564;2023-04-05T02:15:12;102353.25;;;2.25;69.49
57990;BME280;58373;51.824;5.564;2023-04-05T02:17:37;102354.97;;;2.23;69.47
57990;BME280;58373;51.824;5.564;2023-04-05T02:20:10;102356.75;;;2.21;69.46
57990;BME280;58373;51.824;5.564;2023-04-05T02:22:36;102352.50;;;2.20;69.37
57990;BME280;58373;51.824;5.564;2023-04-05T02:25:02;102356.81;;;2.18;69.69
57990;BME280;58373;51.824;5.564;2023-04-05T02:27:27;102350.00;;;2.17;69.54
57990;BME280;58373;51.824;5.564;2023-04-05T02:29:53;102350.94;;;2.14;69.39
57990;BME280;58373;51.824;5.564;2023-04-05T02:32:19;102346.69;;;2.11;69.76
57990;BME280;58373;51.824;5.564;2023-04-05T02:34:45;102342.41;;;2.12;70.10
57990;BME280;58373;51.824;5.564;2023-04-05T02:37:10;102350.13;;;2.10;70.20
57990;BME280;58373;51.824;5.564;2023-04-05T02:39:35;102348.47;;;2.09;69.70
57990;BME280;58373;51.824;5.564;2023-04-05T02:42:00;102347.66;;;2.07;69.90
57990;BME280;58373;51.824;5.564;2023-04-05T02:44:25;102343.41;;;2.06;69.99
57990;BME280;58373;51.824;5.564;2023-04-05T02:46:51;102342.53;;;2.07;69.66
57990;BME280;58373;51.824;5.564;2023-04-05T02:49:16;102344.25;;;2.07;70.43
57990;BME280;58373;51.824;5.564;2023-04-05T02:51:41;102335.00;;;2.01;70.48
57990;BME280;58373;51.824;5.564;2023-04-05T02:54:06;102331.56;;;2.02;70.38
57990;BME280;58373;51.824;5.564;2023-04-05T02:56:32;102331.56;;;2.02;69.83
57990;BME280;58373;51.824;5.564;2023-04-05T02:58:57;102332.44;;;2.01;69.87
57990;BME280;58373;51.824;5.564;2023-04-05T03:01:22;102330.72;;;2.00;70.04
57990;BME280;58373;51.824;5.564;2023-04-05T03:03:47;102328.25;;;1.97;70.42
57990;BME280;58373;51.824;5.564;2023-04-05T03:06:13;102330.03;;;1.95;70.07
57990;BME280;58373;51.824;5.564;2023-04-05T03:08:38;102323.19;;;1.94;69.92
57990;BME280;58373;51.824;5.564;2023-04-05T03:11:08;102319.88;;;1.91;70.31
57990;BME280;58373;51.824;5.564;2023-04-05T03:13:33;102325.84;;;1.91;70.30
57990;BME280;58373;51.824;5.564;2023-04-05T03:15:59;102325.00;;;1.89;70.64
57990;BME280;58373;51.824;5.564;2023-04-05T03:18:24;102323.31;;;1.88;70.11
57990;BME280;58373;51.824;5.564;2023-04-05T03:20:50;102310.63;;;1.85;70.58
57990;BME280;58373;51.824;5.564;2023-04-05T03:23:25;102314.91;;;1.83;70.19
57990;BME280;58373;51.824;5.564;2023-04-05T03:25:58;102314.06;;;1.82;70.09
57990;BME280;58373;51.824;5.564;2023-04-05T03:28:23;102310.75;;;1.79;70.50
57990;BME280;58373;51.824;5.564;2023-04-05T03:30:49;102309.91;;;1.77;70.68
57990;BME280;58373;51.824;5.564;2023-04-05T03:33:14;102305.69;;;1.76;70.61
57990;BME280;58373;51.824;5.564;2023-04-05T03:35:40;102304.00;;;1.75;70.68
57990;BME280;58373;51.824;5.564;2023-04-05T03:38:05;102305.69;;;1.76;70.53
57990;BME280;58373;51.824;5.564;2023-04-05T03:40:31;102306.56;;;1.75;70.56
57990;BME280;58373;51.824;5.564;2023-04-05T03:42:56;102308.31;;;1.73;70.35
57990;BME280;58373;51.824;5.564;2023-04-05T03:45:22;102310.81;;;1.76;70.47
57990;BME280;58373;51.824;5.564;2023-04-05T03:47:47;102302.25;;;1.77;70.79
57990;BME280;58373;51.824;5.564;2023-04-05T03:50:12;102303.13;;;1.76;70.82
57990;BME280;58373;51.824;5.564;2023-04-05T03:52:37;102305.75;;;1.73;70.84
57990;BME280;58373;51.824;5.564;2023-04-05T03:55:03;102299.81;;;1.71;70.46
57990;BME280;58373;51.824;5.564;2023-04-05T03:57:28;102295.63;;;1.68;71.16
57990;BME280;58373;51.824;5.564;2023-04-05T03:59:53;102290.56;;;1.67;70.77
57990;BME280;58373;51.824;5.564;2023-04-05T04:02:19;102297.38;;;1.65;71.20
57990;BME280;58373;51.824;5.564;2023-04-05T04:04:44;102289.81;;;1.62;70.44
57990;BME280;58373;51.824;5.564;2023-04-05T04:07:10;102295.81;;;1.59;70.96
57990;BME280;58373;51.824;5.564;2023-04-05T04:09:35;102297.56;;;1.57;71.02
57990;BME280;58373;51.824;5.564;2023-04-05T04:12:00;102298.44;;;1.54;71.20
57990;BME280;58373;51.824;5.564;2023-04-05T04:14:25;102297.59;;;1.54;70.72
57990;BME280;58373;51.824;5.564;2023-04-05T04:16:51;102295.16;;;1.49;71.06
57990;BME280;58373;51.824;5.564;2023-04-05T04:19:19;102298.53;;;1.51;71.27
57990;BME280;58373;51.824;5.564;2023-04-05T04:21:44;102290.06;;;1.49;71.08
57990;BME280;58373;51.824;5.564;2023-04-05T04:24:15;102288.34;;;1.48;70.84
57990;BME280;58373;51.824;5.564;2023-04-05T04:26:45;102280.72;;;1.47;71.27
57990;BME280;58373;51.824;5.564;2023-04-05T04:29:10;102293.53;;;1.45;70.98
57990;BME280;58373;51.824;5.564;2023-04-05T04:31:37;102295.25;;;1.43;71.32
57990;BME280;58373;51.824;5.564;2023-04-05T04:34:02;102295.31;;;1.42;71.76
57990;BME280;58373;51.824;5.564;2023-04-05T04:36:29;102295.34;;;1.40;71.50
57990;BME280;58373;51.824;5.564;2023-04-05T04:38:59;102291.97;;;1.38;71.36
57990;BME280;58373;51.824;5.564;2023-04-05T04:41:24;102293.72;;;1.36;71.05
57990;BME280;58373;51.824;5.564;2023-04-05T04:43:50;102287.84;;;1.32;71.29
57990;BME280;58373;51.824;5.564;2023-04-05T04:46:18;102287.84;;;1.31;71.66
57990;BME280;58373;51.824;5.564;2023-04-05T04:48:45;102281.94;;;1.29;71.22
57990;BME280;58373;51.824;5.564;2023-04-05T04:51:11;102292.16;;;1.29;71.65
57990;BME280;58373;51.824;5.564;2023-04-05T04:53:36;102299.00;;;1.27;72.11
57990;BME280;58373;51.824;5.564;2023-04-05T04:56:05;102293.94;;;1.24;71.91
57990;BME280;58373;51.824;5.564;2023-04-05T04:58:30;102306.81;;;1.21;71.87
57990;BME280;58373;51.824;5.564;2023-04-05T05:00:56;102295.75;;;1.19;71.98
57990;BME280;58373;51.824;5.564;2023-04-05T05:03:23;102294.06;;;1.18;72.03
57990;BME280;58373;51.824;5.564;2023-04-05T05:05:49;102292.38;;;1.17;72.11
57990;BME280;58373;51.824;5.564;2023-04-05T05:08:14;102289.00;;;1.15;71.95
57990;BME280;58373;51.824;5.564;2023-04-05T05:10:40;102289.00;;;1.15;72.12
57990;BME280;58373;51.824;5.564;2023-04-05T05:13:05;102289.00;;;1.15;72.06
57990;BME280;58373;51.824;5.564;2023-04-05T05:15:30;102294.09;;;1.15;71.86
57990;BME280;58373;51.824;5.564;2023-04-05T05:17:55;102290.72;;;1.16;72.28
57990;BME280;58373;51.824;5.564;2023-04-05T05:20:23;102289.00;;;1.15;72.08
57990;BME280;58373;51.824;5.564;2023-04-05T05:22:48;102300.97;;;1.13;72.16
57990;BME280;58373;51.824;5.564;2023-04-05T05:25:13;102295.88;;;1.13;72.13
57990;BME280;58373;51.824;5.564;2023-04-05T05:27:38;102285.66;;;1.13;72.17
57990;BME280;58373;51.824;5.564;2023-04-05T05:30:04;102294.19;;;1.12;72.14
57990;BME280;58373;51.824;5.564;2023-04-05T05:32:29;102287.41;;;1.11;72.79
57990;BME280;58373;51.824;5.564;2023-04-05T05:34:54;102288.28;;;1.10;72.82
57990;BME280;58373;51.824;5.564;2023-04-05T05:37:30;102288.28;;;1.10;72.57
57990;BME280;58373;51.824;5.564;2023-04-05T05:39:55;102277.16;;;1.11;72.65
57990;BME280;58373;51.824;5.564;2023-04-05T05:42:21;102283.97;;;1.12;72.34
57990;BME280;58373;51.824;5.564;2023-04-05T05:44:46;102279.66;;;1.14;72.49
57990;BME280;58373;51.824;5.564;2023-04-05T05:47:11;102283.09;;;1.13;72.16
57990;BME280;58373;51.824;5.564;2023-04-05T05:49:36;102280.53;;;1.13;72.44
57990;BME280;58373;51.824;5.564;2023-04-05T05:52:02;102276.22;;;1.15;72.92
57990;BME280;58373;51.824;5.564;2023-04-05T05:54:27;102285.59;;;1.16;72.62
57990;BME280;58373;51.824;5.564;2023-04-05T05:56:52;102288.97;;;1.18;72.76
57990;BME280;58373;51.824;5.564;2023-04-05T05:59:18;102282.09;;;1.20;72.49
57990;BME280;58373;51.824;5.564;2023-04-05T06:01:43;102281.22;;;1.22;73.30
57990;BME280;58373;51.824;5.564;2023-04-05T06:04:11;102282.81;;;1.28;72.79
57990;BME280;58373;51.824;5.564;2023-04-05T06:06:36;102285.28;;;1.31;72.67
57990;BME280;58373;51.824;5.564;2023-04-05T06:09:02;102287.00;;;1.32;72.74
57990;BME280;58373;51.824;5.564;2023-04-05T06:11:27;102292.03;;;1.35;72.84
57990;BME280;58373;51.824;5.564;2023-04-05T06:13:52;102291.16;;;1.36;73.25
57990;BME280;58373;51.824;5.564;2023-04-05T06:16:20;102291.97;;;1.38;72.86
57990;BME280;58373;51.824;5.564;2023-04-05T06:18:46;102290.16;;;1.43;72.84
57990;BME280;58373;51.824;5.564;2023-04-05T06:21:11;102290.09;;;1.46;72.99
57990;BME280;58373;51.824;5.564;2023-04-05T06:23:37;102289.13;;;1.52;73.45
57990;BME280;58373;51.824;5.564;2023-04-05T06:26:02;102289.94;;;1.55;73.77
57990;BME280;58373;51.824;5.564;2023-04-05T06:28:27;102288.09;;;1.60;73.77
57990;BME280;58373;51.824;5.564;2023-04-05T06:30:54;102290.56;;;1.65;73.84
57990;BME280;58373;51.824;5.564;2023-04-05T06:33:19;102287.88;;;1.71;73.97
57990;BME280;58373;51.824;5.564;2023-04-05T06:35:45;102285.22;;;1.76;73.26
57990;BME280;58373;51.824;5.564;2023-04-05T06:38:10;102291.88;;;1.83;72.92
57990;BME280;58373;51.824;5.564;2023-04-05T06:40:35;102293.50;;;1.87;73.32
57990;BME280;58373;51.824;5.564;2023-04-05T06:43:01;102295.09;;;1.93;73.16
57990;BME280;58373;51.824;5.564;2023-04-05T06:45:26;102294.13;;;1.98;73.25
57990;BME280;58373;51.824;5.564;2023-04-05T06:47:51;102292.28;;;2.03;73.28
57990;BME280;58373;51.824;5.564;2023-04-05T06:50:16;102292.19;;;2.08;73.59
57990;BME280;58373;51.824;5.564;2023-04-05T06:52:42;102290.41;;;2.11;73.13
57990;BME280;58373;51.824;5.564;2023-04-05T06:55:07;102295.38;;;2.18;73.32
57990;BME280;58373;51.824;5.564;2023-04-05T06:57:33;102293.56;;;2.23;72.81
57990;BME280;58373;51.824;5.564;2023-04-05T06:59:58;102290.00;;;2.30;73.66
57990;BME280;58373;51.824;5.564;2023-04-05T07:02:23;102294.88;;;2.39;72.99
57990;BME280;58373;51.824;5.564;2023-04-05T07:04:48;102298.16;;;2.44;73.38
57990;BME280;58373;51.824;5.564;2023-04-05T07:07:14;102297.13;;;2.53;73.24
57990;BME280;58373;51.824;5.564;2023-04-05T07:09:39;102296.97;;;2.59;72.88
57990;BME280;58373;51.824;5.564;2023-04-05T07:12:05;102296.72;;;2.68;72.22
57990;BME280;58373;51.824;5.564;2023-04-05T07:14:31;102292.38;;;2.72;72.33
57990;BME280;58373;51.824;5.564;2023-04-05T07:16:56;102291.44;;;2.74;72.93
57990;BME280;58373;51.824;5.564;2023-04-05T07:19:22;102300.63;;;2.83;72.77
57990;BME280;58373;51.824;5.564;2023-04-05T07:21:47;102296.19;;;2.89;72.67
57990;BME280;58373;51.824;5.564;2023-04-05T07:24:12;102301.09;;;2.99;72.23
57990;BME280;58373;51.824;5.564;2023-04-05T07:26:38;102295.78;;;3.05;72.45
57990;BME280;58373;51.824;5.564;2023-04-05T07:29:03;102301.59;;;3.11;72.58
57990;BME280;58373;51.824;5.564;2023-04-05T07:31:29;102299.66;;;3.19;73.59
57990;BME280;58373;51.824;5.564;2023-04-05T07:33:55;102296.91;;;3.26;72.85
57990;BME280;58373;51.824;5.564;2023-04-05T07:36:22;102295.88;;;3.33;72.84
57990;BME280;58373;51.824;5.564;2023-04-05T07:38:47;102297.38;;;3.40;73.49
57990;BME280;58373;51.824;5.564;2023-04-05T07:41:12;102298.09;;;3.45;72.52
57990;BME280;58373;51.824;5.564;2023-04-05T07:43:40;102300.56;;;3.48;72.85
57990;BME280;58373;51.824;5.564;2023-04-05T07:46:05;102296.09;;;3.56;72.94
57990;BME280;58373;51.824;5.564;2023-04-05T07:48:30;102289.88;;;3.63;72.78
57990;BME280;58373;51.824;5.564;2023-04-05T07:51:02;102290.53;;;3.70;72.47
57990;BME280;58373;51.824;5.564;2023-04-05T07:53:27;102299.59;;;3.82;72.74
57990;BME280;58373;51.824;5.564;2023-04-05T07:55:52;102294.19;;;3.91;71.78
57990;BME280;58373;51.824;5.564;2023-04-05T07:58:17;102291.38;;;3.98;71.78
57990;BME280;58373;51.824;5.564;2023-04-05T08:00:43;102283.44;;;4.06;71.42
57990;BME280;58373;51.824;5.564;2023-04-05T08:03:08;102289.22;;;4.13;71.98
57990;BME280;58373;51.824;5.564;2023-04-05T08:05:33;102279.47;;;4.24;72.07
57990;BME280;58373;51.824;5.564;2023-04-05T08:07:58;102285.00;;;4.38;72.20
57990;BME280;58373;51.824;5.564;2023-04-05T08:10:24;102287.03;;;4.55;71.96
57990;BME280;58373;51.824;5.564;2023-04-05T08:12:49;102284.19;;;4.63;71.18
57990;BME280;58373;51.824;5.564;2023-04-05T08:15:14;102288.28;;;4.68;71.36
57990;BME280;58373;51.824;5.564;2023-04-05T08:17:40;102282.03;;;4.77;71.17
57990;BME280;58373;51.824;5.564;2023-04-05T08:20:05;102278.34;;;4.84;71.13
57990;BME280;58373;51.824;5.564;2023-04-05T08:22:31;102290.91;;;4.92;70.78
57990;BME280;58373;51.824;5.564;2023-04-05T08:24:56;102293.19;;;5.01;70.58
57990;BME280;58373;51.824;5.564;2023-04-05T08:27:21;102287.69;;;5.10;70.08
57990;BME280;58373;51.824;5.564;2023-04-05T08:29:46;102290.09;;;5.16;69.74
57990;BME280;58373;51.824;5.564;2023-04-05T08:32:12;102289.88;;;5.22;69.47
57990;BME280;58373;51.824;5.564;2023-04-05T08:34:37;102289.66;;;5.28;69.51
57990;BME280;58373;51.824;5.564;2023-04-05T08:37:02;102282.59;;;5.33;69.27
57990;BME280;58373;51.824;5.564;2023-04-05T08:39:27;102287.53;;;5.40;68.94
57990;BME280;58373;51.824;5.564;2023-04-05T08:41:59;102286.41;;;5.47;66.80
57990;BME280;58373;51.824;5.564;2023-04-05T08:44:27;102274.97;;;5.54;65.90
57990;BME280;58373;51.824;5.564;2023-04-05T08:46:54;102280.69;;;5.62;65.57
57990;BME280;58373;51.824;5.564;2023-04-05T08:49:20;102279.56;;;5.69;64.75
57990;BME280;58373;51.824;5.564;2023-04-05T08:51:45;102277.50;;;5.77;65.70
57990;BME280;58373;51.824;5.564;2023-04-05T08:54:12;102283.88;;;5.91;65.90
57990;BME280;58373;51.824;5.564;2023-04-05T08:56:38;102284.28;;;6.03;65.51
57990;BME280;58373;51.824;5.564;2023-04-05T08:59:05;102278.72;;;6.14;64.25
57990;BME280;58373;51.824;5.564;2023-04-05T09:01:31;102279.34;;;6.19;63.94
57990;BME280;58373;51.824;5.564;2023-04-05T09:03:58;102280.66;;;6.29;64.25
57990;BME280;58373;51.824;5.564;2023-04-05T09:06:24;102281.13;;;6.39;64.27
57990;BME280;58373;51.824;5.564;2023-04-05T09:08:51;102279.28;;;6.43;60.27
57990;BME280;58373;51.824;5.564;2023-04-05T09:11:16;102281.72;;;6.46;59.69
57990;BME280;58373;51.824;5.564;2023-04-05T09:13:41;102270.19;;;6.54;61.49
57990;BME280;58373;51.824;5.564;2023-04-05T09:16:06;102282.75;;;6.62;59.26
57990;BME280;58373;51.824;5.564;2023-04-05T09:18:32;102277.28;;;6.70;59.98
57990;BME280;58373;51.824;5.564;2023-04-05T09:21:01;102274.25;;;6.80;58.94
57990;BME280;58373;51.824;5.564;2023-04-05T09:23:27;102272.97;;;6.90;56.44
57990;BME280;58373;51.824;5.564;2023-04-05T09:25:52;102279.66;;;6.95;56.66
57990;BME280;58373;51.824;5.564;2023-04-05T09:28:18;102275.06;;;7.01;57.99
57990;BME280;58373;51.824;5.564;2023-04-05T09:30:46;102274.25;;;7.01;56.70
57990;BME280;58373;51.824;5.564;2023-04-05T09:33:14;102277.47;;;7.06;57.60
57990;BME280;58373;51.824;5.564;2023-04-05T09:35:39;102270.34;;;7.11;56.06
57990;BME280;58373;51.824;5.564;2023-04-05T09:38:05;102270.78;;;7.21;56.64
57990;BME280;58373;51.824;5.564;2023-04-05T09:40:46;102267.72;;;7.31;53.92
57990;BME280;58373;51.824;5.564;2023-04-05T09:43:12;102269.28;;;7.35;54.71
57990;BME280;58373;51.824;5.564;2023-04-05T09:45:38;102267.31;;;7.40;56.28
57990;BME280;58373;51.824;5.564;2023-04-05T09:48:04;102268.56;;;7.51;55.42
57990;BME280;58373;51.824;5.564;2023-04-05T09:50:29;102266.31;;;7.62;56.34
57990;BME280;58373;51.824;5.564;2023-04-05T09:55:49;102262.00;;;7.81;50.56
57990;BME280;58373;51.824;5.564;2023-04-05T09:58:19;102265.31;;;7.83;52.75
57990;BME280;58373;51.824;5.564;2023-04-05T10:00:48;102260.03;;;7.86;53.99
57990;BME280;58373;51.824;5.564;2023-04-05T10:03:17;102258.06;;;7.91;55.44
57990;BME280;58373;51.824;5.564;2023-04-05T10:05:43;102253.50;;;7.96;55.35
57990;BME280;58373;51.824;5.564;2023-04-05T10:08:08;102253.38;;;7.99;51.93
57990;BME280;58373;51.824;5.564;2023-04-05T10:10:33;102245.31;;;8.06;53.81
57990;BME280;58373;51.824;5.564;2023-04-05T10:13:01;102252.03;;;8.10;53.95
57990;BME280;58373;51.824;5.564;2023-04-05T10:15:29;102249.44;;;8.27;52.12
57990;BME280;58373;51.824;5.564;2023-04-05T10:17:55;102244.13;;;8.30;51.44
57990;BME280;58373;51.824;5.564;2023-04-05T10:20:27;102233.63;;;8.33;51.86
57990;BME280;58373;51.824;5.564;2023-04-05T10:23:16;102229.72;;;8.43;54.16
57990;BME280;58373;51.824;5.564;2023-04-05T10:28:35;102223.13;;;8.71;52.27
57990;BME280;58373;51.824;5.564;2023-04-05T10:33:39;102230.97;;;9.02;52.33
57990;BME280;58373;51.824;5.564;2023-04-05T10:38:41;102215.06;;;9.26;53.46
57990;BME280;58373;51.824;5.564;2023-04-05T10:41:11;102217.72;;;9.40;52.83
57990;BME280;58373;51.824;5.564;2023-04-05T10:43:36;102214.66;;;9.49;52.33
57990;BME280;58373;51.824;5.564;2023-04-05T10:46:03;102206.78;;;9.51;52.43
57990;BME280;58373;51.824;5.564;2023-04-05T10:48:39;102213.72;;;9.50;52.53
57990;BME280;58373;51.824;5.564;2023-04-05T10:51:08;102202.19;;;9.56;52.28
57990;BME280;58373;51.824;5.564;2023-04-05T10:53:34;102206.19;;;9.62;51.81
57990;BME280;58373;51.824;5.564;2023-04-05T10:56:01;102204.38;;;9.64;51.76
57990;BME280;58373;51.824;5.564;2023-04-05T10:58:27;102198.84;;;9.70;51.95
57990;BME280;58373;51.824;5.564;2023-04-05T11:00:53;102200.84;;;9.65;49.71
57990;BME280;58373;51.824;5.564;2023-04-05T11:06:31;102201.00;;;9.62;49.72
57990;BME280;58373;51.824;5.564;2023-04-05T11:09:08;102197.50;;;9.63;49.05
57990;BME280;58373;51.824;5.564;2023-04-05T11:11:38;102190.78;;;9.74;49.74
57990;BME280;58373;51.824;5.564;2023-04-05T11:14:16;102190.19;;;9.85;49.79
57990;BME280;58373;51.824;5.564;2023-04-05T11:16:41;102191.25;;;9.97;49.38
57990;BME280;58373;51.824;5.564;2023-04-05T11:19:10;102188.06;;;10.07;50.01
57990;BME280;58373;51.824;5.564;2023-04-05T11:21:35;102180.84;;;10.13;49.71
57990;BME280;58373;51.824;5.564;2023-04-05T11:24:01;102180.84;;;10.13;48.67
57990;BME280;58373;51.824;5.564;2023-04-05T11:29:05;102187.78;;;10.28;48.73
57990;BME280;58373;51.824;5.564;2023-04-05T11:31:30;102179.44;;;10.37;47.84
57990;BME280;58373;51.824;5.564;2023-04-05T11:33:56;102177.03;;;10.48;45.53
57990;BME280;58373;51.824;5.564;2023-04-05T11:41:44;102176.78;;;10.23;44.41
57990;BME280;58373;51.824;5.564;2023-04-05T11:44:13;102171.72;;;10.21;43.78
57990;BME280;58373;51.824;5.564;2023-04-05T11:46:39;102163.53;;;10.13;44.32
57990;BME280;58373;51.824;5.564;2023-04-05T11:49:05;102165.03;;;10.17;44.32
57990;BME280;58373;51.824;5.564;2023-04-05T11:51:31;102164.59;;;10.25;45.42
57990;BME280;58373;51.824;5.564;2023-04-05T11:53:57;102156.06;;;10.23;42.48
57990;BME280;58373;51.824;5.564;2023-04-05T11:56:22;102158.25;;;10.15;45.05
57990;BME280;58373;51.824;5.564;2023-04-05T11:58:47;102147.53;;;10.21;45.34
57990;BME280;58373;51.824;5.564;2023-04-05T12:01:12;102151.41;;;10.14;45.01
57990;BME280;58373;51.824;5.564;2023-04-05T12:03:38;102148.06;;;10.11;42.05
57990;BME280;58373;51.824;5.564;2023-04-05T12:06:03;102143.06;;;10.08;42.76
57990;BME280;58373;51.824;5.564;2023-04-05T12:11:24;102136.97;;;10.09;43.26
57990;BME280;58373;51.824;5.564;2023-04-05T12:13:53;102132.50;;;10.11;41.79
57990;BME280;58373;51.824;5.564;2023-04-05T12:16:19;102134.38;;;10.09;44.56
57990;BME280;58373;51.824;5.564;2023-04-05T12:18:45;102129.59;;;10.32;45.33
57990;BME280;58373;51.824;5.564;2023-04-05T12:21:16;102131.47;;;10.58;43.92
57990;BME280;58373;51.824;5.564;2023-04-05T12:23:42;102125.53;;;10.42;43.08
57990;BME280;58373;51.824;5.564;2023-04-05T12:26:07;102124.25;;;10.35;42.33
57990;BME280;58373;51.824;5.564;2023-04-05T12:29:06;102126.47;;;10.27;43.54
57990;BME280;58373;51.824;5.564;2023-04-05T12:31:38;102125.44;;;10.29;43.53
57990;BME280;58373;51.824;5.564;2023-04-05T12:34:04;102124.22;;;10.21;42.83
57990;BME280;58373;51.824;5.564;2023-04-05T12:36:29;102122.31;;;10.08;41.71
57990;BME280;58373;51.824;5.564;2023-04-05T12:38:58;102120.66;;;10.07;43.28
57990;BME280;58373;51.824;5.564;2023-04-05T12:41:27;102112.91;;;10.22;43.96
57990;BME280;58373;51.824;5.564;2023-04-05T12:43:53;102117.56;;;10.31;43.04
57990;BME280;58373;51.824;5.564;2023-04-05T12:46:36;102106.28;;;10.46;43.50
57990;BME280;58373;51.824;5.564;2023-04-05T12:49:03;102100.72;;;10.52;43.43
57990;BME280;58373;51.824;5.564;2023-04-05T12:51:28;102102.38;;;10.53;40.58
57990;BME280;58373;51.824;5.564;2023-04-05T12:53:55;102101.91;;;10.47;42.99
57990;BME280;58373;51.824;5.564;2023-04-05T12:56:20;102093.03;;;10.51;43.29
57990;BME280;58373;51.824;5.564;2023-04-05T12:58:47;102096.94;;;10.44;40.85
57990;BME280;58373;51.824;5.564;2023-04-05T13:01:16;102097.56;;;10.47;41.73
57990;BME280;58373;51.824;5.564;2023-04-05T13:03:44;102077.19;;;10.41;43.44
57990;BME280;58373;51.824;5.564;2023-04-05T13:06:10;102091.06;;;10.26;40.58
57990;BME280;58373;51.824;5.564;2023-04-05T13:08:35;102088.75;;;10.21;42.39
57990;BME280;58373;51.824;5.564;2023-04-05T13:11:00;102084.47;;;10.20;42.01
57990;BME280;58373;51.824;5.564;2023-04-05T13:13:25;102083.81;;;10.17;41.59
57990;BME280;58373;51.824;5.564;2023-04-05T13:15:51;102076.03;;;10.17;42.20
57990;BME280;58373;51.824;5.564;2023-04-05T13:18:16;102081.22;;;10.17;40.35
57990;BME280;58373;51.824;5.564;2023-04-05T13:20:41;102073.16;;;10.07;41.33
57990;BME280;58373;51.824;5.564;2023-04-05T13:23:07;102070.31;;;10.11;40.63
57990;BME280;58373;51.824;5.564;2023-04-05T13:25:35;102073.25;;;10.05;40.38
57990;BME280;58373;51.824;5.564;2023-04-05T13:28:00;102072.44;;;10.05;42.32